Time;durP1;ratioP1;P1;durP2;ratioP2;P2;SDS_P1;SDS_P2;PMS_P1;PMS_P2;Temp;Humidity;BMP_temperature;BMP_pressure;BME280_temperature;BME280_humidity;BME280_pressure;Samples;Min_cycle;Max_cycle;Signal;HPM_P1;HPM_P2
2023/10/12 00:01:24;;;;;;;5.32;1.50;;;13.90;99.90;;;;;;5132898;27;20039;-72
2023/10/12 00:03:55;;;;;;;5.68;1.42;;;13.80;99.90;;;;;;5098195;27;20126;-72
2023/10/12 00:06:21;;;;;;;7.80;1.92;;;13.90;99.90;;;;;;5133197;27;20071;-72
2023/10/12 00:08:48;;;;;;;4.72;1.42;;;13.90;99.90;;;;;;5132673;27;20046;-72
2023/10/12 00:11:19;;;;;;;7.25;1.52;;;13.90;99.90;;;;;;5132702;27;20083;-72
2023/10/12 00:13:47;;;;;;;17.63;2.08;;;13.90;99.90;;;;;;5114641;27;20038;-71
2023/10/12 00:16:18;;;;;;;9.77;1.70;;;13.90;99.90;;;;;;5114587;27;20083;-72
2023/10/12 00:18:45;;;;;;;6.38;2.05;;;14.00;99.90;;;;;;5114376;27;20047;-72
2023/10/12 00:21:14;;;;;;;2.75;1.60;;;13.90;99.90;;;;;;5114505;27;20126;-72
2023/10/12 00:23:41;;;;;;;6.30;1.65;;;13.90;99.90;;;;;;5114633;27;20035;-72
2023/10/12 00:26:07;;;;;;;7.35;2.35;;;14.00;99.90;;;;;;5132910;27;20034;-72
2023/10/12 00:28:38;;;;;;;6.75;1.92;;;13.90;99.90;;;;;;5114191;27;20046;-71
2023/10/12 00:31:16;;;;;;;8.35;2.00;;;13.90;99.90;;;;;;5114107;27;20091;-72
2023/10/12 00:33:42;;;;;;;9.15;2.22;;;14.00;99.90;;;;;;5114394;27;20043;-72
2023/10/12 00:36:19;;;;;;;7.40;2.10;;;13.90;99.90;;;;;;5114644;27;20503;-71
2023/10/12 00:38:46;;;;;;;7.97;2.17;;;14.00;99.90;;;;;;5132715;27;20243;-71
2023/10/12 00:41:14;;;;;;;9.45;1.90;;;14.00;99.90;;;;;;5096979;28;20086;-72
2023/10/12 00:43:52;;;;;;;9.23;2.05;;;14.00;99.90;;;;;;5097283;28;20045;-72
2023/10/12 00:46:21;;;;;;;8.80;2.40;;;14.00;99.90;;;;;;5132790;28;20039;-72
2023/10/12 00:49:13;;;;;;;9.15;2.28;;;14.00;99.90;;;;;;5114161;28;20516;-72
2023/10/12 00:51:37;;;;;;;8.05;2.15;;;14.00;99.90;;;;;;5132281;28;20078;-72
2023/10/12 00:54:04;;;;;;;5.93;1.88;;;13.90;99.90;;;;;;5114096;28;20042;-74
2023/10/12 00:56:30;;;;;;;15.63;3.17;;;14.00;99.90;;;;;;5132172;28;20083;-72
2023/10/12 00:58:56;;;;;;;5.72;1.73;;;14.00;99.90;;;;;;5097145;28;20039;-72
2023/10/12 01:01:23;;;;;;;6.45;1.65;;;14.00;99.90;;;;;;5132404;28;20035;-72
2023/10/12 01:03:49;;;;;;;9.70;2.22;;;13.90;99.90;;;;;;5115904;27;20115;-74
2023/10/12 01:06:28;;;;;;;13.02;2.08;;;14.00;99.90;;;;;;5136605;27;20058;-74
2023/10/12 01:08:59;;;;;;;7.10;1.80;;;13.90;99.90;;;;;;5100711;27;20039;-72
2023/10/12 01:11:26;;;;;;;9.85;1.67;;;13.90;99.90;;;;;;5117955;27;20035;-72
2023/10/12 01:16:55;;;;;;;8.02;2.08;;;14.00;99.90;;;;;;5118130;27;20126;-72
2023/10/12 01:19:21;;;;;;;8.27;1.95;;;13.90;99.90;;;;;;5136118;27;20031;-72
2023/10/12 01:21:47;;;;;;;11.15;1.85;;;13.90;99.90;;;;;;5135979;27;20060;-72
2023/10/12 01:24:13;;;;;;;7.18;2.13;;;13.90;99.90;;;;;;5136098;27;20051;-72
2023/10/12 01:26:44;;;;;;;3.70;1.70;;;13.90;99.90;;;;;;5136219;27;20035;-72
2023/10/12 01:29:19;;;;;;;11.15;1.90;;;13.90;99.90;;;;;;5117516;27;20039;-72
2023/10/12 01:31:51;;;;;;;7.30;2.63;;;13.80;99.90;;;;;;5135840;27;20042;-72
2023/10/12 01:34:17;;;;;;;7.43;2.60;;;13.80;99.90;;;;;;5117699;27;20031;-72
2023/10/12 01:36:43;;;;;;;9.20;1.88;;;13.80;99.90;;;;;;5117693;27;20354;-72
2023/10/12 01:39:14;;;;;;;5.55;1.33;;;13.80;99.90;;;;;;5117591;27;20156;-72
2023/10/12 01:41:43;;;;;;;7.47;2.03;;;13.80;99.90;;;;;;5117327;27;20075;-72
2023/10/12 01:44:12;;;;;;;4.47;1.70;;;13.80;99.90;;;;;;5117744;27;20039;-72
2023/10/12 01:46:41;;;;;;;4.95;1.50;;;13.80;99.90;;;;;;5135691;27;20043;-72
2023/10/12 01:49:09;;;;;;;7.00;2.10;;;13.80;99.90;;;;;;5135454;27;20399;-72
2023/10/12 01:51:39;;;;;;;8.32;1.55;;;13.80;99.90;;;;;;5135515;27;20039;-72
2023/10/12 01:54:06;;;;;;;7.97;2.08;;;13.80;99.90;;;;;;5099903;27;20054;-72
2023/10/12 01:56:33;;;;;;;7.53;1.77;;;13.70;99.90;;;;;;5135234;27;20130;-72
2023/10/12 01:59:00;;;;;;;5.80;1.83;;;13.80;99.90;;;;;;5135508;27;20058;-72
2023/10/12 02:01:33;;;;;;;7.30;2.10;;;13.80;99.90;;;;;;5135426;27;20035;-72
2023/10/12 02:04:01;;;;;;;5.07;1.55;;;13.70;99.90;;;;;;5135595;27;20042;-72
2023/10/12 02:06:30;;;;;;;8.93;1.88;;;13.80;99.90;;;;;;5135394;27;20115;-72
2023/10/12 02:09:08;;;;;;;10.82;2.55;;;13.80;99.90;;;;;;5099432;27;20042;-72
2023/10/12 02:11:42;;;;;;;5.90;1.60;;;13.70;99.90;;;;;;5135462;27;20035;-72
2023/10/12 02:14:11;;;;;;;8.65;2.00;;;13.70;99.90;;;;;;5099617;27;20114;-72
2023/10/12 02:16:39;;;;;;;8.35;1.75;;;13.70;99.90;;;;;;5116978;27;20109;-72
2023/10/12 02:19:07;;;;;;;5.68;1.65;;;13.80;99.90;;;;;;5135002;27;20034;-72
2023/10/12 02:21:37;;;;;;;9.30;1.70;;;13.70;99.90;;;;;;5099404;27;20681;-72
2023/10/12 02:26:52;;;;;;;6.82;1.90;;;13.70;99.90;;;;;;5135003;27;20126;-72
2023/10/12 02:29:18;;;;;;;6.97;3.10;;;13.80;99.90;;;;;;5116167;27;20043;-72
2023/10/12 02:34:28;;;;;;;9.90;1.98;;;13.70;99.90;;;;;;5116490;27;20054;-72
2023/10/12 02:39:41;;;;;;;6.68;1.98;;;13.70;99.90;;;;;;5116437;27;20410;-72
2023/10/12 02:44:56;;;;;;;10.48;1.73;;;13.70;99.90;;;;;;5116233;27;20035;-71
2023/10/12 02:47:23;;;;;;;10.00;1.88;;;13.60;99.90;;;;;;5134694;27;20037;-72
2023/10/12 02:50:00;;;;;;;10.77;2.00;;;13.60;99.90;;;;;;5134501;27;20047;-71
2023/10/12 02:52:31;;;;;;;9.82;1.73;;;13.60;99.90;;;;;;5099119;27;20474;-72
2023/10/12 02:54:58;;;;;;;6.05;1.65;;;13.60;99.90;;;;;;5134101;27;20096;-71
2023/10/12 02:57:31;;;;;;;7.57;2.47;;;13.50;99.90;;;;;;5134061;27;20082;-72
2023/10/12 02:59:57;;;;;;;10.13;1.70;;;13.50;99.90;;;;;;5115648;27;20039;-72
2023/10/12 03:02:35;;;;;;;8.82;2.47;;;13.50;99.90;;;;;;5115833;27;20050;-72
2023/10/12 03:05:08;;;;;;;7.85;2.35;;;13.50;99.90;;;;;;5134053;27;20031;-72
2023/10/12 03:07:39;;;;;;;7.22;2.33;;;13.50;99.90;;;;;;5115270;27;20100;-72
2023/10/12 03:10:07;;;;;;;8.05;2.05;;;13.50;99.90;;;;;;5134072;27;20049;-72
2023/10/12 03:12:43;;;;;;;8.27;2.00;;;13.50;99.90;;;;;;5115669;27;20039;-71
2023/10/12 03:15:12;;;;;;;6.28;2.20;;;13.50;99.90;;;;;;5134133;27;20031;-71
2023/10/12 03:17:42;;;;;;;5.57;1.55;;;13.40;99.90;;;;;;5115272;27;20119;-72
2023/10/12 03:20:24;;;;;;;9.25;2.25;;;13.50;99.90;;;;;;5133644;27;20110;-71
2023/10/12 03:22:53;;;;;;;11.77;2.17;;;13.40;99.90;;;;;;5115935;27;20045;-72
2023/10/12 03:28:12;;;;;;;8.88;2.22;;;13.40;99.90;;;;;;5115087;27;20043;-74
2023/10/12 03:30:43;;;;;;;9.57;2.17;;;13.40;99.90;;;;;;5133190;27;20039;-74
2023/10/12 03:33:14;;;;;;;7.20;2.15;;;13.30;99.90;;;;;;5114149;27;20039;-74
2023/10/12 03:35:57;;;;;;;9.23;1.90;;;13.30;99.90;;;;;;5114649;27;20047;-74
2023/10/12 03:38:32;;;;;;;8.18;2.00;;;13.30;99.90;;;;;;5133196;27;20053;-74
2023/10/12 03:43:46;;;;;;;8.93;2.33;;;13.30;99.90;;;;;;5133711;27;20036;-72
2023/10/12 03:46:26;;;;;;;7.43;1.88;;;13.30;99.90;;;;;;5133163;27;20691;-72
2023/10/12 03:49:23;;;;;;;7.80;2.25;;;13.20;99.90;;;;;;5133127;27;20042;-72
2023/10/12 03:51:49;;;;;;;13.93;2.60;;;13.30;99.90;;;;;;5133320;27;20046;-72
2023/10/12 03:54:26;;;;;;;7.40;2.58;;;13.20;99.90;;;;;;5115010;27;20070;-72
2023/10/12 03:56:53;;;;;;;7.55;2.60;;;13.30;99.90;;;;;;5097245;27;20051;-72
2023/10/12 03:59:27;;;;;;;7.60;1.58;;;13.20;99.90;;;;;;5114371;27;20088;-72
2023/10/12 04:01:54;;;;;;;14.23;2.97;;;13.20;99.90;;;;;;5132765;27;20035;-72
2023/10/12 04:04:34;;;;;;;7.80;1.83;;;13.10;99.90;;;;;;5133028;27;20039;-72
2023/10/12 04:09:51;;;;;;;9.02;2.20;;;13.20;99.90;;;;;;5132898;27;20130;-72
2023/10/12 04:12:35;;;;;;;8.30;2.72;;;13.10;99.90;;;;;;5114327;27;20043;-72
2023/10/12 04:15:06;;;;;;;6.88;2.47;;;13.10;99.90;;;;;;5114794;27;20084;-72
2023/10/12 04:25:30;;;;;;;6.30;1.90;;;13.00;99.90;;;;;;5114621;28;20486;-72
2023/10/12 04:31:20;;;;;;;9.80;1.83;;;13.00;99.90;;;;;;5113837;27;20099;-72
2023/10/12 04:33:42;;;;;;;9.95;2.50;;;13.00;99.90;;;;;;5132448;27;20043;-72
2023/10/12 04:39:17;;;;;;;7.32;2.28;;;13.10;99.90;;;;;;5113597;27;20043;-72
2023/10/12 04:41:24;;;;;;;15.13;3.55;;;13.00;99.90;;;;;;5103211;28;20395;-72
2023/10/12 04:43:53;;;;;;;8.95;2.30;;;13.10;99.90;;;;;;5114737;28;20092;-72
2023/10/12 04:48:48;;;;;;;9.65;2.85;;;13.00;99.90;;;;;;5113714;28;20043;-72
2023/10/12 04:51:21;;;;;;;11.43;2.13;;;13.00;99.90;;;;;;5113013;28;20035;-72
2023/10/12 04:54:04;;;;;;;10.40;2.17;;;13.00;99.90;;;;;;5113891;28;20118;-72
2023/10/12 04:56:36;;;;;;;6.13;2.10;;;12.90;99.90;;;;;;5113591;28;20039;-72
2023/10/12 04:59:15;;;;;;;7.80;2.10;;;12.90;99.90;;;;;;5131912;28;20591;-72
2023/10/12 05:02:04;;;;;;;10.20;2.17;;;12.90;99.90;;;;;;5096040;28;20044;-72
2023/10/12 05:05:14;;;;;;;9.40;2.60;;;12.90;99.90;;;;;;5115525;28;20473;-72
2023/10/12 05:09:49;;;;;;;9.02;2.55;;;12.90;99.90;;;;;;5091382;28;20095;-72
2023/10/12 05:12:25;;;;;;;11.50;2.50;;;12.80;99.90;;;;;;5073286;28;20513;-72
2023/10/12 05:15:01;;;;;;;6.22;2.70;;;12.90;99.90;;;;;;5091343;28;20046;-72
2023/10/12 05:17:27;;;;;;;9.88;3.53;;;12.80;99.90;;;;;;5072903;28;20119;-72
2023/10/12 05:19:53;;;;;;;11.10;2.92;;;12.80;99.90;;;;;;5091032;28;20555;-72
2023/10/12 05:22:22;;;;;;;9.00;2.90;;;12.80;99.90;;;;;;5073311;28;20032;-72
2023/10/12 05:24:48;;;;;;;5.82;2.35;;;12.80;99.90;;;;;;5073285;28;20071;-72
2023/10/12 05:27:24;;;;;;;12.88;2.80;;;12.70;99.90;;;;;;5073097;28;20075;-72
2023/10/12 05:29:59;;;;;;;7.53;2.67;;;12.80;99.90;;;;;;5073367;28;20040;-72
2023/10/12 05:32:36;;;;;;;5.43;2.55;;;12.70;99.90;;;;;;5091364;28;20134;-72
2023/10/12 05:35:06;;;;;;;9.48;3.00;;;12.70;99.90;;;;;;5073390;28;20047;-72
2023/10/12 05:37:38;;;;;;;5.82;2.45;;;12.60;99.90;;;;;;5072815;28;20428;-72
2023/10/12 05:40:14;;;;;;;6.35;2.42;;;12.70;99.90;;;;;;5072714;28;20040;-72
2023/10/12 05:42:39;;;;;;;7.25;2.35;;;12.70;99.90;;;;;;5073007;28;20071;-72
2023/10/12 05:45:51;;;;;;;7.47;2.80;;;12.70;99.90;;;;;;5073216;28;20129;-73
2023/10/12 05:47:53;;;;;;;5.63;2.00;;;12.70;99.90;;;;;;5080157;28;20043;-72
2023/10/12 05:50:23;;;;;;;7.75;2.50;;;12.60;99.90;;;;;;5074749;28;20051;-72
2023/10/12 05:52:53;;;;;;;6.25;2.15;;;12.60;99.90;;;;;;5076594;28;20044;-72
2023/10/12 05:55:22;;;;;;;5.65;2.42;;;12.60;99.90;;;;;;5094637;28;20056;-72
2023/10/12 05:57:48;;;;;;;5.95;2.05;;;12.60;99.90;;;;;;5076027;28;20032;-72
2023/10/12 06:02:59;;;;;;;5.65;3.05;;;12.40;99.90;;;;;;5093768;28;20036;-72
2023/10/12 06:05:25;;;;;;;9.80;2.40;;;12.40;99.90;;;;;;5076291;28;20051;-72
2023/10/12 06:07:50;;;;;;;10.35;2.97;;;12.40;99.90;;;;;;5094247;28;20558;-72
2023/10/12 06:10:16;;;;;;;8.60;2.40;;;12.40;99.90;;;;;;5076225;28;20051;-72
2023/10/12 06:12:42;;;;;;;7.38;2.22;;;12.40;99.90;;;;;;5094304;28;20556;-72
2023/10/12 06:15:10;;;;;;;7.60;2.30;;;12.30;99.90;;;;;;5075817;28;20047;-72
2023/10/12 06:17:39;;;;;;;7.65;1.92;;;12.30;99.90;;;;;;5093888;28;20127;-72
2023/10/12 06:20:11;;;;;;;10.98;2.33;;;12.30;99.90;;;;;;5058998;28;20035;-72
2023/10/12 06:22:38;;;;;;;6.45;2.22;;;12.30;99.90;;;;;;5059568;28;20507;-73
2023/10/12 06:25:10;;;;;;;7.55;2.55;;;12.30;99.90;;;;;;5075914;28;20036;-72
2023/10/12 06:27:37;;;;;;;5.57;2.25;;;12.40;99.90;;;;;;5075614;28;20040;-72
2023/10/12 06:30:16;;;;;;;8.13;2.70;;;12.40;99.90;;;;;;5075498;28;20055;-72
2023/10/12 06:32:42;;;;;;;8.05;2.80;;;12.40;99.90;;;;;;5059171;28;20081;-72
2023/10/12 06:43:57;;;;;;;5.38;2.15;;;12.40;99.90;;;;;;5075725;28;20040;-75
2023/10/12 06:45:47;;;;;;;6.68;1.80;;;12.40;99.90;;;;;;5075479;28;20098;-74
2023/10/12 06:51:13;;;;;;;9.40;2.08;;;12.60;99.90;;;;;;5093638;28;20044;-74
2023/10/12 06:53:52;;;;;;;9.07;2.67;;;12.60;99.90;;;;;;5093591;28;20500;-74
2023/10/12 06:59:07;;;;;;;4.80;1.88;;;12.90;99.90;;;;;;5093285;28;20445;-74
2023/10/12 07:01:51;;;;;;;8.82;3.10;;;13.00;99.90;;;;;;5093371;28;20047;-74
2023/10/12 07:12:14;;;;;;;7.07;2.17;;;13.30;99.90;;;;;;5093223;28;20407;-75
2023/10/12 07:14:52;;;;;;;5.35;1.73;;;13.50;99.90;;;;;;5093191;28;20036;-74
2023/10/12 07:17:18;;;;;;;11.40;1.98;;;13.70;99.90;;;;;;5092895;28;20052;-74
2023/10/12 07:19:53;;;;;;;4.80;1.55;;;13.90;99.90;;;;;;5092995;28;20123;-72
2023/10/12 07:22:19;;;;;;;6.25;1.77;;;14.00;99.90;;;;;;5093283;28;20028;-72
2023/10/12 07:24:49;;;;;;;13.10;1.88;;;14.20;99.90;;;;;;5074973;28;20032;-71
2023/10/12 07:27:18;;;;;;;6.00;1.60;;;14.40;99.90;;;;;;5093341;28;20448;-74
2023/10/12 07:29:44;;;;;;;10.90;1.92;;;14.50;99.90;;;;;;5092804;28;20040;-74
2023/10/12 07:35:05;;;;;;;9.30;2.53;;;14.60;99.90;;;;;;5092954;28;20048;-74
2023/10/12 07:37:31;;;;;;;8.13;1.70;;;14.70;99.90;;;;;;5067566;28;20119;-73
2023/10/12 07:40:01;;;;;;;5.88;1.50;;;14.90;99.90;;;;;;5112416;28;20111;-74
2023/10/12 07:42:27;;;;;;;7.03;1.63;;;15.00;99.90;;;;;;5094465;28;20031;-74
2023/10/12 07:44:54;;;;;;;6.00;1.73;;;15.20;99.90;;;;;;5112339;28;20034;-73
2023/10/12 07:47:40;;;;;;;8.23;1.65;;;15.10;99.90;;;;;;5094248;28;20040;-73
2023/10/12 07:50:09;;;;;;;7.93;2.10;;;15.20;99.90;;;;;;5094267;28;20567;-74
2023/10/12 07:52:39;;;;;;;8.00;1.45;;;15.20;99.90;;;;;;5112805;28;20039;-74
2023/10/12 07:55:17;;;;;;;7.88;1.90;;;15.40;99.90;;;;;;5094581;28;20526;-77
2023/10/12 07:57:44;;;;;;;5.50;1.50;;;15.50;99.90;;;;;;5094449;28;20525;-71
2023/10/12 08:10:56;;;;;;;5.80;1.23;;;15.20;99.90;;;;;;5092393;28;20039;-71
2023/10/12 08:23:58;;;;;;;6.10;1.58;;;14.80;99.90;;;;;;5111315;28;20036;-70
2023/10/12 08:39:39;;;;;;;4.15;1.40;;;14.60;99.90;;;;;;5107112;28;20043;-70
2023/10/12 08:44:55;;;;;;;8.35;1.98;;;14.60;99.90;;;;;;5110662;28;20507;-70
2023/10/12 08:47:25;;;;;;;3.42;1.20;;;14.70;99.90;;;;;;5111100;28;20542;-71
2023/10/12 08:50:01;;;;;;;7.75;2.10;;;14.80;99.90;;;;;;5110767;28;20096;-70
2023/10/12 08:52:30;;;;;;;6.50;1.42;;;14.80;99.90;;;;;;5112145;28;20636;-70
2023/10/12 08:55:03;;;;;;;6.78;1.33;;;14.90;99.90;;;;;;5111020;28;20051;-71
2023/10/12 08:57:56;;;;;;;4.30;1.40;;;14.90;99.90;;;;;;5110641;28;20040;-70
2023/10/12 09:03:06;;;;;;;8.02;1.48;;;15.10;99.90;;;;;;5093841;28;20078;-70
2023/10/12 09:05:33;;;;;;;7.88;1.83;;;15.00;99.90;;;;;;5090471;28;20039;-71
2023/10/12 09:13:45;;;;;;;10.45;1.35;;;15.00;99.90;;;;;;5032139;28;20139;-70
2023/10/12 09:16:11;;;;;;;6.57;1.25;;;15.00;99.90;;;;;;5079686;28;20135;-70
2023/10/12 09:18:49;;;;;;;8.82;1.65;;;15.00;99.90;;;;;;5090023;28;20068;-70
2023/10/12 09:23:52;;;;;;;6.20;1.38;;;14.80;99.90;;;;;;5106622;28;20040;-70
2023/10/12 09:26:37;;;;;;;6.80;1.30;;;14.80;99.90;;;;;;5114766;28;20526;-70
2023/10/12 09:36:37;;;;;;;6.47;1.77;;;14.90;99.90;;;;;;5115180;28;20566;-70
2023/10/12 09:39:04;;;;;;;8.25;1.52;;;15.00;99.90;;;;;;5113806;28;20039;-70
2023/10/12 09:41:38;;;;;;;14.48;1.38;;;15.00;99.90;;;;;;5114401;27;20035;-70
2023/10/12 09:44:07;;;;;;;5.55;1.30;;;14.90;99.90;;;;;;5113493;28;20043;-71
2023/10/12 09:46:36;;;;;;;7.63;1.30;;;14.90;99.90;;;;;;5112399;28;20681;-70
2023/10/12 09:49:20;;;;;;;6.13;0.93;;;14.90;99.90;;;;;;5113807;28;20032;-70
2023/10/12 09:51:54;;;;;;;7.97;1.55;;;14.90;99.90;;;;;;5115198;27;20032;-70
2023/10/12 09:54:28;;;;;;;6.63;1.50;;;14.90;99.90;;;;;;5115342;27;20092;-70
2023/10/12 09:57:16;;;;;;;3.17;1.13;;;15.00;99.90;;;;;;5115135;27;20036;-69
2023/10/12 09:59:51;;;;;;;6.28;1.30;;;15.10;99.90;;;;;;5114014;28;20039;-70
2023/10/12 10:02:28;;;;;;;6.10;1.33;;;15.00;99.90;;;;;;5115127;28;20039;-69
2023/10/12 10:05:11;;;;;;;6.45;1.00;;;15.10;99.90;;;;;;5104615;28;20027;-70
2023/10/12 10:07:59;;;;;;;7.55;1.83;;;15.20;99.90;;;;;;5104465;28;20116;-70
2023/10/12 10:10:33;;;;;;;9.25;1.60;;;15.20;99.90;;;;;;5114868;28;20434;-70
2023/10/12 10:13:00;;;;;;;8.27;1.95;;;15.30;99.90;;;;;;5113642;28;20074;-70
2023/10/12 10:15:37;;;;;;;8.93;2.10;;;15.40;99.90;;;;;;5114628;28;20062;-69
2023/10/12 10:18:14;;;;;;;10.25;2.33;;;15.40;99.90;;;;;;5110011;28;20036;-70
2023/10/12 10:20:46;;;;;;;8.07;1.45;;;15.50;99.90;;;;;;5106185;28;20564;-70
2023/10/12 10:23:19;;;;;;;10.57;1.80;;;15.50;99.90;;;;;;5123002;27;20073;-69
2023/10/12 10:28:55;;;;;;;5.90;1.23;;;15.50;99.90;;;;;;5135168;27;20047;-73
2023/10/12 10:31:28;;;;;;;15.07;3.03;;;15.60;99.90;;;;;;5134992;27;20520;-73
2023/10/12 10:34:05;;;;;;;8.00;2.20;;;15.70;99.90;;;;;;5135105;27;20035;-73
2023/10/12 10:36:35;;;;;;;7.03;1.25;;;15.70;99.90;;;;;;5133189;27;20117;-73
2023/10/12 10:39:38;;;;;;;6.35;1.60;;;15.70;99.90;;;;;;5134693;27;20035;-73
2023/10/12 10:42:00;;;;;;;8.55;1.50;;;15.60;99.90;;;;;;5132223;27;20039;-73
2023/10/12 10:44:26;;;;;;;6.63;1.42;;;15.60;99.90;;;;;;5133756;27;20043;-73
2023/10/12 10:46:58;;;;;;;6.03;1.77;;;15.70;99.90;;;;;;5122579;27;20032;-71
2023/10/12 10:49:30;;;;;;;6.55;1.85;;;15.70;99.90;;;;;;5101278;28;20132;-71
2023/10/12 10:54:33;;;;;;;16.83;1.73;;;15.80;99.90;;;;;;5102546;28;20621;-71
2023/10/12 10:56:59;;;;;;;7.22;1.35;;;15.80;99.90;;;;;;5108691;28;20498;-72
2023/10/12 10:59:25;;;;;;;6.78;2.50;;;15.90;99.90;;;;;;5112494;28;20647;-71
2023/10/12 11:01:52;;;;;;;9.77;1.42;;;15.80;99.90;;;;;;5113610;28;20088;-72
2023/10/12 11:07:03;;;;;;;7.28;1.15;;;16.00;99.90;;;;;;5113789;28;20415;-72
2023/10/12 11:09:49;;;;;;;8.38;1.67;;;16.00;99.90;;;;;;5113648;28;20429;-71
2023/10/12 11:12:14;;;;;;;7.07;1.40;;;16.20;99.90;;;;;;5108589;28;20073;-72
2023/10/12 11:14:52;;;;;;;9.02;1.13;;;16.20;99.90;;;;;;5098638;28;20438;-73
2023/10/12 11:17:19;;;;;;;6.93;1.42;;;16.30;99.90;;;;;;5091748;28;20483;-72
2023/10/12 11:19:46;;;;;;;5.68;1.48;;;16.40;99.90;;;;;;5093253;28;20467;-70
2023/10/12 11:22:15;;;;;;;8.00;1.30;;;16.40;99.90;;;;;;5092960;28;20051;-72
2023/10/12 11:24:50;;;;;;;10.05;1.58;;;16.40;99.90;;;;;;5092952;28;20036;-71
2023/10/12 11:27:31;;;;;;;8.23;1.38;;;16.50;99.90;;;;;;5091550;28;20056;-71
2023/10/12 11:30:00;;;;;;;6.72;1.30;;;16.40;99.90;;;;;;5092789;28;20078;-73
2023/10/12 11:32:28;;;;;;;7.53;1.30;;;16.40;99.90;;;;;;5091881;28;20082;-72
2023/10/12 11:34:59;;;;;;;5.15;1.40;;;16.40;99.90;;;;;;5092883;28;20036;-71
2023/10/12 11:37:28;;;;;;;7.32;1.40;;;16.50;99.90;;;;;;5092619;28;20050;-71
2023/10/12 11:39:54;;;;;;;13.40;2.28;;;16.40;99.90;;;;;;5091439;28;20094;-72
2023/10/12 11:42:20;;;;;;;7.60;2.45;;;16.50;99.90;;;;;;5091356;28;20067;-72
2023/10/12 11:44:47;;;;;;;11.98;2.53;;;16.50;99.90;;;;;;5092552;28;20505;-72
2023/10/12 11:47:23;;;;;;;7.35;1.67;;;16.50;99.90;;;;;;5090638;28;20048;-72
2023/10/12 11:49:58;;;;;;;7.82;1.55;;;16.50;99.90;;;;;;5092342;28;20145;-70
2023/10/12 11:52:34;;;;;;;7.35;1.00;;;16.50;99.90;;;;;;5091567;28;20214;-71
2023/10/12 11:55:07;;;;;;;7.20;1.25;;;16.40;99.90;;;;;;5092435;28;20046;-70
2023/10/12 11:57:40;;;;;;;4.45;1.85;;;16.40;99.90;;;;;;5090946;28;20122;-71
2023/10/12 12:00:20;;;;;;;8.45;1.45;;;16.40;99.90;;;;;;5092290;28;20498;-72
2023/10/12 12:02:52;;;;;;;46.70;22.63;;;16.40;99.90;;;;;;5092566;28;20161;-71
2023/10/12 12:05:19;;;;;;;9.17;2.27;;;16.50;99.90;;;;;;5091310;28;20035;-71
2023/10/12 12:07:51;;;;;;;12.13;2.17;;;16.50;99.90;;;;;;5092251;28;20266;-70
2023/10/12 12:10:26;;;;;;;11.85;2.92;;;16.50;99.90;;;;;;5091950;28;20040;-71
2023/10/12 12:12:52;;;;;;;3.70;1.10;;;16.40;99.90;;;;;;5091273;28;20036;-71
2023/10/12 12:15:18;;;;;;;7.55;1.40;;;16.30;99.90;;;;;;5094430;28;20073;-70
2023/10/12 12:17:46;;;;;;;5.53;1.73;;;16.30;99.90;;;;;;5100749;28;20043;-70
2023/10/12 12:20:21;;;;;;;6.18;1.10;;;16.30;99.90;;;;;;5083553;28;20036;-69
2023/10/12 12:22:47;;;;;;;10.52;2.15;;;16.20;99.90;;;;;;5099637;28;20116;-70
2023/10/12 12:25:31;;;;;;;10.63;1.77;;;16.20;99.90;;;;;;5101632;28;20714;-72
2023/10/12 12:28:04;;;;;;;5.90;1.25;;;16.10;99.90;;;;;;5101604;28;20032;-71
2023/10/12 12:30:34;;;;;;;11.70;2.00;;;16.10;99.90;;;;;;5109806;28;20122;-71
2023/10/12 12:33:00;;;;;;;6.65;1.35;;;16.10;99.90;;;;;;5111198;28;20043;-71
2023/10/12 12:35:29;;;;;;;5.95;1.65;;;16.10;99.90;;;;;;5112238;28;20103;-72
2023/10/12 12:38:05;;;;;;;7.18;1.95;;;16.10;99.90;;;;;;5112271;28;20028;-71
2023/10/12 12:40:31;;;;;;;5.47;1.77;;;16.00;99.90;;;;;;5111009;28;20047;-71
2023/10/12 12:42:58;;;;;;;3.25;0.95;;;15.90;99.90;;;;;;5111010;28;20039;-71
2023/10/12 12:45:23;;;;;;;6.53;1.40;;;15.90;99.90;;;;;;5112111;28;20071;-71
2023/10/12 12:47:49;;;;;;;7.38;1.67;;;15.90;99.90;;;;;;5111911;28;20082;-71
2023/10/12 12:50:15;;;;;;;13.23;4.15;;;15.90;99.90;;;;;;5111647;28;20104;-71
2023/10/12 12:52:41;;;;;;;10.52;2.20;;;15.80;99.90;;;;;;5112244;28;20072;-69
2023/10/12 12:55:16;;;;;;;13.55;2.90;;;15.80;99.90;;;;;;5112200;28;20078;-69
2023/10/12 12:57:42;;;;;;;7.25;1.52;;;15.80;99.90;;;;;;5111937;28;20036;-71
2023/10/12 13:00:10;;;;;;;8.38;1.55;;;15.80;99.90;;;;;;5115569;28;20040;-72
2023/10/12 13:02:38;;;;;;;8.23;2.13;;;15.80;99.90;;;;;;5114798;28;20035;-70
2023/10/12 13:05:07;;;;;;;7.72;1.55;;;15.80;99.90;;;;;;5116204;28;20047;-72
2023/10/12 13:07:34;;;;;;;6.85;1.20;;;15.70;99.90;;;;;;5114895;28;20050;-70
2023/10/12 13:10:00;;;;;;;7.30;1.92;;;15.70;99.90;;;;;;5115791;28;20636;-72
2023/10/12 13:12:31;;;;;;;8.57;2.17;;;15.80;99.90;;;;;;5116062;28;20056;-72
2023/10/12 13:15:00;;;;;;;30.67;5.18;;;15.70;99.90;;;;;;5114551;28;20047;-72
2023/10/12 13:17:32;;;;;;;15.88;2.63;;;15.80;99.90;;;;;;5114480;28;20081;-73
2023/10/12 13:19:58;;;;;;;15.02;2.17;;;15.80;99.90;;;;;;5114276;28;20046;-69
2023/10/12 13:22:27;;;;;;;5.80;1.48;;;15.80;99.90;;;;;;5115831;28;20036;-69
2023/10/12 13:24:56;;;;;;;6.07;1.20;;;15.80;99.90;;;;;;5114464;28;20128;-69
2023/10/12 13:27:24;;;;;;;9.00;1.80;;;15.70;99.90;;;;;;5115657;28;20039;-69
2023/10/12 13:29:50;;;;;;;6.00;1.08;;;15.70;99.90;;;;;;5115478;28;20055;-69
2023/10/12 13:32:18;;;;;;;9.70;1.50;;;15.70;99.90;;;;;;5114335;28;20036;-68
2023/10/12 13:34:44;;;;;;;5.00;1.85;;;15.70;99.90;;;;;;5115630;28;20437;-69
2023/10/12 13:37:13;;;;;;;11.10;2.88;;;15.70;99.90;;;;;;5115379;28;20032;-68
2023/10/12 13:39:38;;;;;;;9.25;2.40;;;15.70;99.90;;;;;;5096984;28;20040;-68
2023/10/12 13:42:11;;;;;;;5.32;1.35;;;15.70;99.90;;;;;;5114175;28;20119;-68
2023/10/12 13:44:39;;;;;;;7.38;1.85;;;15.70;99.90;;;;;;5114120;28;20088;-69
2023/10/12 13:47:07;;;;;;;8.50;1.75;;;15.60;99.90;;;;;;5114219;28;20054;-70
2023/10/12 13:49:34;;;;;;;7.78;1.35;;;15.60;99.90;;;;;;5113838;28;20051;-70
2023/10/12 13:52:03;;;;;;;9.25;1.98;;;15.60;99.90;;;;;;5115043;28;20039;-69
2023/10/12 13:54:31;;;;;;;8.23;1.10;;;15.70;99.90;;;;;;5115260;28;20043;-70
2023/10/12 13:56:58;;;;;;;10.02;1.67;;;15.60;99.90;;;;;;5115004;28;20066;-70
2023/10/12 13:59:24;;;;;;;7.18;1.45;;;15.60;99.90;;;;;;5115124;28;20035;-70
2023/10/12 14:01:51;;;;;;;8.95;2.88;;;15.60;99.90;;;;;;5115079;28;20045;-68
2023/10/12 14:04:34;;;;;;;11.05;2.10;;;15.50;99.90;;;;;;5085833;28;20067;-69
2023/10/12 14:07:03;;;;;;;;;;;15.50;99.90;;;;;;5104373;28;20039;-69
2023/10/12 14:09:32;;;;;;;7.35;1.20;;;15.30;99.90;;;;;;5106601;28;19915;-69
2023/10/12 14:11:57;;;;;;;3.20;1.10;;;15.40;99.90;;;;;;5114332;28;20075;-69
2023/10/12 14:14:28;;;;;;;7.40;1.55;;;15.40;99.90;;;;;;5108541;28;20120;-69
2023/10/12 14:16:54;;;;;;;8.07;1.30;;;15.30;99.90;;;;;;5102776;28;20047;-69
2023/10/12 14:19:23;;;;;;;6.00;1.92;;;15.30;99.90;;;;;;5102117;28;20044;-70
2023/10/12 14:21:52;;;;;;;13.73;1.70;;;15.30;99.90;;;;;;5144997;22;20043;-71
2023/10/12 14:24:23;;;;;;;7.82;1.27;;;15.30;99.90;;;;;;5142307;27;20042;-71
2023/10/12 14:26:50;;;;;;;4.47;1.30;;;15.30;99.90;;;;;;5127756;27;20096;-71
2023/10/12 14:29:18;;;;;;;8.60;1.52;;;15.30;99.90;;;;;;5143811;27;20520;-73
2023/10/12 14:31:45;;;;;;;10.70;2.28;;;15.20;99.90;;;;;;5141269;27;20398;-73
2023/10/12 14:34:14;;;;;;;5.50;1.15;;;15.20;99.90;;;;;;5133997;27;20039;-73
2023/10/12 14:36:40;;;;;;;7.88;1.48;;;15.20;99.90;;;;;;5136171;27;20394;-73
2023/10/12 14:39:12;;;;;;;8.63;1.73;;;15.10;99.90;;;;;;5135409;27;20498;-72
2023/10/12 14:41:39;;;;;;;12.55;1.40;;;15.00;99.90;;;;;;5135271;27;20077;-72
2023/10/12 14:44:05;;;;;;;8.50;1.70;;;14.90;99.90;;;;;;5116215;27;20558;-71
2023/10/12 14:46:30;;;;;;;4.47;1.30;;;14.90;99.90;;;;;;5134890;27;20027;-70
2023/10/12 14:48:56;;;;;;;12.50;2.25;;;14.80;99.90;;;;;;5168483;27;20087;-70
2023/10/12 14:51:25;;;;;;;4.70;1.33;;;14.60;99.90;;;;;;5134475;27;20486;-71
2023/10/12 14:53:50;;;;;;;10.82;1.70;;;14.40;99.90;;;;;;5133250;27;20058;-70
2023/10/12 14:56:28;;;;;;;3.45;1.42;;;14.20;99.90;;;;;;5134419;27;20406;-70
2023/10/12 14:58:53;;;;;;;7.78;2.00;;;14.10;99.90;;;;;;5134410;27;20039;-70
2023/10/12 15:01:21;;;;;;;10.18;1.60;;;14.10;99.90;;;;;;5134226;27;20532;-71
2023/10/12 15:03:46;;;;;;;5.72;1.95;;;14.00;99.90;;;;;;5133323;27;20039;-70
2023/10/12 15:06:12;;;;;;;11.07;1.92;;;13.90;99.90;;;;;;5134254;27;20081;-72
2023/10/12 15:08:39;;;;;;;7.20;2.53;;;13.80;99.90;;;;;;5134287;27;20082;-71
2023/10/12 15:11:07;;;;;;;8.57;1.65;;;13.80;99.90;;;;;;5132743;27;20455;-72
2023/10/12 15:13:37;;;;;;;10.13;2.20;;;13.80;99.90;;;;;;5134216;27;20482;-72
2023/10/12 15:16:07;;;;;;;9.18;1.60;;;13.80;99.90;;;;;;5133292;27;20121;-72